sensor_id;sensor_type;location;lat;lon;timestamp;P1;durP1;ratioP1;P2;durP2;ratioP2
25950;SDS011;13748;52.240;6.002;2023-01-28T00:01:23;17.40;;;10.40;;
25950;SDS011;13748;52.240;6.002;2023-01-28T00:03:50;18.17;;;10.77;;
25950;SDS011;13748;52.240;6.002;2023-01-28T00:06:19;17.70;;;10.07;;
25950;SDS011;13748;52.240;6.002;2023-01-28T00:08:47;16.70;;;9.87;;
25950;SDS011;13748;52.240;6.002;2023-01-28T00:11:13;15.10;;;9.63;;
25950;SDS011;13748;52.240;6.002;2023-01-28T00:13:40;16.43;;;9.90;;
25950;SDS011;13748;52.240;6.002;2023-01-28T00:16:08;17.43;;;10.20;;
25950;SDS011;13748;52.240;6.002;2023-01-28T00:18:35;16.40;;;10.40;;
25950;SDS011;13748;52.240;6.002;2023-01-28T00:21:06;16.17;;;9.80;;
25950;SDS011;13748;52.240;6.002;2023-01-28T00:23:36;16.60;;;10.00;;
25950;SDS011;13748;52.240;6.002;2023-01-28T00:26:05;16.27;;;9.27;;
25950;SDS011;13748;52.240;6.002;2023-01-28T00:28:33;17.07;;;9.73;;
25950;SDS011;13748;52.240;6.002;2023-01-28T00:31:07;14.60;;;9.23;;
25950;SDS011;13748;52.240;6.002;2023-01-28T00:33:35;15.83;;;9.37;;
25950;SDS011;13748;52.240;6.002;2023-01-28T00:36:02;17.27;;;10.80;;
25950;SDS011;13748;52.240;6.002;2023-01-28T00:38:32;16.00;;;10.43;;
25950;SDS011;13748;52.240;6.002;2023-01-28T00:41:06;15.30;;;9.40;;
25950;SDS011;13748;52.240;6.002;2023-01-28T00:43:37;16.40;;;10.07;;
25950;SDS011;13748;52.240;6.002;2023-01-28T00:46:05;16.07;;;9.43;;
25950;SDS011;13748;52.240;6.002;2023-01-28T00:48:33;15.27;;;9.40;;
25950;SDS011;13748;52.240;6.002;2023-01-28T00:51:01;17.43;;;10.57;;
25950;SDS011;13748;52.240;6.002;2023-01-28T00:53:28;16.63;;;10.03;;
25950;SDS011;13748;52.240;6.002;2023-01-28T00:55:55;17.87;;;10.23;;
25950;SDS011;13748;52.240;6.002;2023-01-28T00:58:21;17.43;;;10.07;;
25950;SDS011;13748;52.240;6.002;2023-01-28T01:00:51;16.50;;;9.87;;
25950;SDS011;13748;52.240;6.002;2023-01-28T01:03:18;18.67;;;10.07;;
25950;SDS011;13748;52.240;6.002;2023-01-28T01:05:45;16.63;;;10.33;;
25950;SDS011;13748;52.240;6.002;2023-01-28T01:08:12;16.83;;;10.43;;
25950;SDS011;13748;52.240;6.002;2023-01-28T01:10:39;14.97;;;9.87;;
25950;SDS011;13748;52.240;6.002;2023-01-28T01:13:06;17.77;;;10.23;;
25950;SDS011;13748;52.240;6.002;2023-01-28T01:15:33;17.17;;;10.17;;
25950;SDS011;13748;52.240;6.002;2023-01-28T01:18:00;18.43;;;10.30;;
25950;SDS011;13748;52.240;6.002;2023-01-28T01:20:27;14.50;;;9.80;;
25950;SDS011;13748;52.240;6.002;2023-01-28T01:22:55;17.80;;;10.70;;
25950;SDS011;13748;52.240;6.002;2023-01-28T01:25:22;16.27;;;9.27;;
25950;SDS011;13748;52.240;6.002;2023-01-28T01:27:48;17.87;;;10.33;;
25950;SDS011;13748;52.240;6.002;2023-01-28T01:30:15;15.37;;;10.17;;
25950;SDS011;13748;52.240;6.002;2023-01-28T01:32:42;16.10;;;9.33;;
25950;SDS011;13748;52.240;6.002;2023-01-28T01:35:09;17.97;;;10.80;;
25950;SDS011;13748;52.240;6.002;2023-01-28T01:37:36;15.73;;;10.07;;
25950;SDS011;13748;52.240;6.002;2023-01-28T01:40:03;15.50;;;9.03;;
25950;SDS011;13748;52.240;6.002;2023-01-28T01:42:31;13.93;;;9.60;;
25950;SDS011;13748;52.240;6.002;2023-01-28T01:45:03;15.50;;;8.93;;
25950;SDS011;13748;52.240;6.002;2023-01-28T01:47:43;14.70;;;9.47;;
25950;SDS011;13748;52.240;6.002;2023-01-28T01:50:36;15.93;;;9.67;;
25950;SDS011;13748;52.240;6.002;2023-01-28T01:53:09;13.33;;;8.40;;
25950;SDS011;13748;52.240;6.002;2023-01-28T01:55:42;15.33;;;8.90;;
25950;SDS011;13748;52.240;6.002;2023-01-28T01:58:15;14.40;;;9.10;;
25950;SDS011;13748;52.240;6.002;2023-01-28T02:00:44;14.00;;;8.93;;
25950;SDS011;13748;52.240;6.002;2023-01-28T02:03:11;13.50;;;8.73;;
25950;SDS011;13748;52.240;6.002;2023-01-28T02:05:39;17.10;;;9.30;;
25950;SDS011;13748;52.240;6.002;2023-01-28T02:08:05;17.20;;;9.67;;
25950;SDS011;13748;52.240;6.002;2023-01-28T02:10:49;15.10;;;9.70;;
25950;SDS011;13748;52.240;6.002;2023-01-28T02:13:20;16.53;;;9.63;;
25950;SDS011;13748;52.240;6.002;2023-01-28T02:15:50;14.60;;;9.37;;
25950;SDS011;13748;52.240;6.002;2023-01-28T02:18:18;15.67;;;9.30;;
25950;SDS011;13748;52.240;6.002;2023-01-28T02:31:51;17.00;;;9.93;;
25950;SDS011;13748;52.240;6.002;2023-01-28T02:36:53;16.13;;;9.67;;
25950;SDS011;13748;52.240;6.002;2023-01-28T02:39:28;15.00;;;9.77;;
25950;SDS011;13748;52.240;6.002;2023-01-28T02:42:01;18.50;;;10.60;;
25950;SDS011;13748;52.240;6.002;2023-01-28T02:44:31;17.13;;;9.77;;
25950;SDS011;13748;52.240;6.002;2023-01-28T02:46:58;16.33;;;9.93;;
25950;SDS011;13748;52.240;6.002;2023-01-28T02:49:45;16.80;;;9.87;;
25950;SDS011;13748;52.240;6.002;2023-01-28T02:55:17;15.93;;;9.43;;
25950;SDS011;13748;52.240;6.002;2023-01-28T02:57:57;16.77;;;10.33;;
25950;SDS011;13748;52.240;6.002;2023-01-28T03:00:33;17.27;;;9.77;;
25950;SDS011;13748;52.240;6.002;2023-01-28T03:05:51;18.87;;;10.80;;
25950;SDS011;13748;52.240;6.002;2023-01-28T03:08:38;18.53;;;10.87;;
25950;SDS011;13748;52.240;6.002;2023-01-28T03:11:30;17.97;;;9.50;;
25950;SDS011;13748;52.240;6.002;2023-01-28T03:14:19;18.60;;;10.33;;
25950;SDS011;13748;52.240;6.002;2023-01-28T03:17:07;17.17;;;9.90;;
25950;SDS011;13748;52.240;6.002;2023-01-28T03:20:00;19.17;;;10.27;;
25950;SDS011;13748;52.240;6.002;2023-01-28T03:22:46;20.10;;;11.20;;
25950;SDS011;13748;52.240;6.002;2023-01-28T03:25:37;17.57;;;10.17;;
25950;SDS011;13748;52.240;6.002;2023-01-28T03:28:26;17.93;;;9.97;;
25950;SDS011;13748;52.240;6.002;2023-01-28T03:31:14;18.83;;;9.97;;
25950;SDS011;13748;52.240;6.002;2023-01-28T03:34:02;18.50;;;10.77;;
25950;SDS011;13748;52.240;6.002;2023-01-28T03:36:49;19.40;;;10.27;;
25950;SDS011;13748;52.240;6.002;2023-01-28T03:39:29;18.57;;;10.33;;
25950;SDS011;13748;52.240;6.002;2023-01-28T03:42:04;18.50;;;9.67;;
25950;SDS011;13748;52.240;6.002;2023-01-28T03:44:31;17.97;;;9.93;;
25950;SDS011;13748;52.240;6.002;2023-01-28T03:47:24;19.27;;;11.13;;
25950;SDS011;13748;52.240;6.002;2023-01-28T03:49:53;18.53;;;9.93;;
25950;SDS011;13748;52.240;6.002;2023-01-28T03:52:28;17.50;;;9.73;;
25950;SDS011;13748;52.240;6.002;2023-01-28T03:54:56;16.80;;;9.90;;
25950;SDS011;13748;52.240;6.002;2023-01-28T03:57:24;17.23;;;10.70;;
25950;SDS011;13748;52.240;6.002;2023-01-28T03:59:52;17.70;;;10.20;;
25950;SDS011;13748;52.240;6.002;2023-01-28T04:02:20;19.37;;;10.30;;
25950;SDS011;13748;52.240;6.002;2023-01-28T04:04:48;16.33;;;9.77;;
25950;SDS011;13748;52.240;6.002;2023-01-28T04:07:15;17.60;;;10.40;;
25950;SDS011;13748;52.240;6.002;2023-01-28T04:09:43;16.97;;;9.97;;
25950;SDS011;13748;52.240;6.002;2023-01-28T04:12:10;16.87;;;10.17;;
25950;SDS011;13748;52.240;6.002;2023-01-28T04:14:37;18.10;;;10.23;;
25950;SDS011;13748;52.240;6.002;2023-01-28T04:17:05;17.23;;;10.20;;
25950;SDS011;13748;52.240;6.002;2023-01-28T04:19:33;17.67;;;10.50;;
25950;SDS011;13748;52.240;6.002;2023-01-28T04:22:06;18.47;;;10.70;;
25950;SDS011;13748;52.240;6.002;2023-01-28T04:24:35;19.47;;;10.93;;
25950;SDS011;13748;52.240;6.002;2023-01-28T04:27:02;17.53;;;10.33;;
25950;SDS011;13748;52.240;6.002;2023-01-28T04:29:29;17.93;;;10.90;;
25950;SDS011;13748;52.240;6.002;2023-01-28T04:31:56;19.53;;;11.13;;
25950;SDS011;13748;52.240;6.002;2023-01-28T04:34:23;17.80;;;10.67;;
25950;SDS011;13748;52.240;6.002;2023-01-28T04:36:50;18.37;;;10.93;;
25950;SDS011;13748;52.240;6.002;2023-01-28T04:39:16;17.17;;;10.97;;
25950;SDS011;13748;52.240;6.002;2023-01-28T04:41:43;16.57;;;10.20;;
25950;SDS011;13748;52.240;6.002;2023-01-28T04:44:10;19.53;;;11.17;;
25950;SDS011;13748;52.240;6.002;2023-01-28T04:46:39;18.33;;;10.63;;
25950;SDS011;13748;52.240;6.002;2023-01-28T04:49:07;18.97;;;11.00;;
25950;SDS011;13748;52.240;6.002;2023-01-28T04:51:34;18.57;;;11.20;;
25950;SDS011;13748;52.240;6.002;2023-01-28T04:54:01;20.57;;;11.87;;
25950;SDS011;13748;52.240;6.002;2023-01-28T04:56:28;18.33;;;11.60;;
25950;SDS011;13748;52.240;6.002;2023-01-28T04:58:54;17.67;;;10.77;;
25950;SDS011;13748;52.240;6.002;2023-01-28T05:01:21;18.53;;;11.13;;
25950;SDS011;13748;52.240;6.002;2023-01-28T05:03:48;19.97;;;12.03;;
25950;SDS011;13748;52.240;6.002;2023-01-28T05:06:15;18.27;;;11.13;;
25950;SDS011;13748;52.240;6.002;2023-01-28T05:08:42;18.87;;;11.87;;
25950;SDS011;13748;52.240;6.002;2023-01-28T05:11:08;19.43;;;11.37;;
25950;SDS011;13748;52.240;6.002;2023-01-28T05:13:35;19.70;;;12.23;;
25950;SDS011;13748;52.240;6.002;2023-01-28T05:16:02;21.33;;;12.67;;
25950;SDS011;13748;52.240;6.002;2023-01-28T05:18:29;21.13;;;12.33;;
25950;SDS011;13748;52.240;6.002;2023-01-28T05:20:55;20.07;;;12.60;;
25950;SDS011;13748;52.240;6.002;2023-01-28T05:23:22;20.97;;;12.80;;
25950;SDS011;13748;52.240;6.002;2023-01-28T05:25:49;21.83;;;12.83;;
25950;SDS011;13748;52.240;6.002;2023-01-28T05:28:16;23.57;;;13.13;;
25950;SDS011;13748;52.240;6.002;2023-01-28T05:30:43;21.93;;;13.73;;
25950;SDS011;13748;52.240;6.002;2023-01-28T05:33:10;23.63;;;13.93;;
25950;SDS011;13748;52.240;6.002;2023-01-28T05:35:36;25.73;;;14.77;;
25950;SDS011;13748;52.240;6.002;2023-01-28T05:38:03;25.80;;;13.87;;
25950;SDS011;13748;52.240;6.002;2023-01-28T05:40:30;23.70;;;14.03;;
25950;SDS011;13748;52.240;6.002;2023-01-28T05:42:57;22.63;;;13.70;;
25950;SDS011;13748;52.240;6.002;2023-01-28T05:45:24;22.93;;;13.77;;
25950;SDS011;13748;52.240;6.002;2023-01-28T05:47:51;25.60;;;13.90;;
25950;SDS011;13748;52.240;6.002;2023-01-28T05:50:17;21.43;;;12.87;;
25950;SDS011;13748;52.240;6.002;2023-01-28T05:52:44;20.67;;;12.27;;
25950;SDS011;13748;52.240;6.002;2023-01-28T05:55:11;20.53;;;12.37;;
25950;SDS011;13748;52.240;6.002;2023-01-28T05:57:38;19.33;;;11.30;;
25950;SDS011;13748;52.240;6.002;2023-01-28T06:00:05;18.27;;;11.27;;
25950;SDS011;13748;52.240;6.002;2023-01-28T06:02:32;18.50;;;11.27;;
25950;SDS011;13748;52.240;6.002;2023-01-28T06:04:59;17.67;;;11.43;;
25950;SDS011;13748;52.240;6.002;2023-01-28T06:07:25;16.83;;;10.63;;
25950;SDS011;13748;52.240;6.002;2023-01-28T06:09:52;17.17;;;11.20;;
25950;SDS011;13748;52.240;6.002;2023-01-28T06:12:19;17.67;;;10.93;;
25950;SDS011;13748;52.240;6.002;2023-01-28T06:14:45;22.13;;;12.57;;
25950;SDS011;13748;52.240;6.002;2023-01-28T06:17:12;18.50;;;11.13;;
25950;SDS011;13748;52.240;6.002;2023-01-28T06:19:39;17.93;;;11.67;;
25950;SDS011;13748;52.240;6.002;2023-01-28T06:22:06;19.07;;;12.00;;
25950;SDS011;13748;52.240;6.002;2023-01-28T06:24:32;20.73;;;12.27;;
25950;SDS011;13748;52.240;6.002;2023-01-28T06:26:59;19.67;;;12.67;;
25950;SDS011;13748;52.240;6.002;2023-01-28T06:29:26;20.07;;;11.87;;
25950;SDS011;13748;52.240;6.002;2023-01-28T06:31:52;20.03;;;12.40;;
25950;SDS011;13748;52.240;6.002;2023-01-28T06:34:19;19.17;;;11.87;;
25950;SDS011;13748;52.240;6.002;2023-01-28T06:36:46;20.53;;;12.87;;
25950;SDS011;13748;52.240;6.002;2023-01-28T06:39:13;17.37;;;11.43;;
25950;SDS011;13748;52.240;6.002;2023-01-28T06:41:39;20.60;;;13.17;;
25950;SDS011;13748;52.240;6.002;2023-01-28T06:44:06;18.67;;;12.40;;
25950;SDS011;13748;52.240;6.002;2023-01-28T06:46:33;18.03;;;12.40;;
25950;SDS011;13748;52.240;6.002;2023-01-28T06:49:00;18.53;;;11.80;;
25950;SDS011;13748;52.240;6.002;2023-01-28T06:51:26;18.73;;;11.97;;
25950;SDS011;13748;52.240;6.002;2023-01-28T06:53:53;17.97;;;11.57;;
25950;SDS011;13748;52.240;6.002;2023-01-28T06:56:20;19.47;;;12.90;;
25950;SDS011;13748;52.240;6.002;2023-01-28T06:58:47;21.03;;;12.53;;
25950;SDS011;13748;52.240;6.002;2023-01-28T07:01:13;18.37;;;11.77;;
25950;SDS011;13748;52.240;6.002;2023-01-28T07:03:40;17.37;;;11.43;;
25950;SDS011;13748;52.240;6.002;2023-01-28T07:06:07;16.53;;;11.20;;
25950;SDS011;13748;52.240;6.002;2023-01-28T07:08:34;18.47;;;11.43;;
25950;SDS011;13748;52.240;6.002;2023-01-28T07:11:02;18.03;;;11.63;;
25950;SDS011;13748;52.240;6.002;2023-01-28T07:13:29;15.67;;;11.30;;
25950;SDS011;13748;52.240;6.002;2023-01-28T07:15:56;17.67;;;11.30;;
25950;SDS011;13748;52.240;6.002;2023-01-28T07:18:23;18.80;;;11.57;;
25950;SDS011;13748;52.240;6.002;2023-01-28T07:20:50;18.33;;;12.27;;
25950;SDS011;13748;52.240;6.002;2023-01-28T07:23:16;17.33;;;11.80;;
25950;SDS011;13748;52.240;6.002;2023-01-28T07:25:43;18.50;;;11.93;;
25950;SDS011;13748;52.240;6.002;2023-01-28T07:28:10;18.53;;;11.73;;
25950;SDS011;13748;52.240;6.002;2023-01-28T07:30:37;17.47;;;11.50;;
25950;SDS011;13748;52.240;6.002;2023-01-28T07:33:03;18.90;;;12.40;;
25950;SDS011;13748;52.240;6.002;2023-01-28T07:35:30;19.13;;;12.23;;
25950;SDS011;13748;52.240;6.002;2023-01-28T07:37:58;18.00;;;11.90;;
25950;SDS011;13748;52.240;6.002;2023-01-28T07:40:26;18.87;;;12.00;;
25950;SDS011;13748;52.240;6.002;2023-01-28T07:42:53;19.07;;;11.20;;
25950;SDS011;13748;52.240;6.002;2023-01-28T07:45:22;19.23;;;11.90;;
25950;SDS011;13748;52.240;6.002;2023-01-28T07:47:56;18.87;;;12.00;;
25950;SDS011;13748;52.240;6.002;2023-01-28T07:50:25;20.70;;;11.53;;
25950;SDS011;13748;52.240;6.002;2023-01-28T07:52:53;17.87;;;10.90;;
25950;SDS011;13748;52.240;6.002;2023-01-28T07:55:21;17.70;;;10.30;;
25950;SDS011;13748;52.240;6.002;2023-01-28T08:00:20;16.17;;;9.97;;
25950;SDS011;13748;52.240;6.002;2023-01-28T08:02:48;16.57;;;10.40;;
25950;SDS011;13748;52.240;6.002;2023-01-28T08:05:19;16.90;;;10.53;;
25950;SDS011;13748;52.240;6.002;2023-01-28T08:07:47;15.67;;;10.37;;
25950;SDS011;13748;52.240;6.002;2023-01-28T08:10:14;17.03;;;10.73;;
25950;SDS011;13748;52.240;6.002;2023-01-28T08:12:52;16.27;;;10.53;;
25950;SDS011;13748;52.240;6.002;2023-01-28T08:15:20;16.40;;;10.57;;
25950;SDS011;13748;52.240;6.002;2023-01-28T08:17:47;17.33;;;10.90;;
25950;SDS011;13748;52.240;6.002;2023-01-28T08:20:14;14.83;;;9.90;;
25950;SDS011;13748;52.240;6.002;2023-01-28T08:22:42;17.13;;;10.43;;
25950;SDS011;13748;52.240;6.002;2023-01-28T08:25:09;18.30;;;10.97;;
25950;SDS011;13748;52.240;6.002;2023-01-28T08:27:35;16.67;;;10.23;;
25950;SDS011;13748;52.240;6.002;2023-01-28T08:30:02;18.53;;;10.60;;
25950;SDS011;13748;52.240;6.002;2023-01-28T08:32:29;17.53;;;10.60;;
25950;SDS011;13748;52.240;6.002;2023-01-28T08:34:56;18.30;;;10.80;;
25950;SDS011;13748;52.240;6.002;2023-01-28T08:37:24;15.40;;;9.77;;
25950;SDS011;13748;52.240;6.002;2023-01-28T08:39:51;16.10;;;9.53;;
25950;SDS011;13748;52.240;6.002;2023-01-28T08:42:17;16.47;;;9.63;;
25950;SDS011;13748;52.240;6.002;2023-01-28T08:44:44;16.33;;;9.90;;
25950;SDS011;13748;52.240;6.002;2023-01-28T08:47:13;15.67;;;9.87;;
25950;SDS011;13748;52.240;6.002;2023-01-28T08:49:40;15.13;;;9.40;;
25950;SDS011;13748;52.240;6.002;2023-01-28T08:52:06;16.97;;;10.30;;
25950;SDS011;13748;52.240;6.002;2023-01-28T08:54:33;15.53;;;9.80;;
25950;SDS011;13748;52.240;6.002;2023-01-28T08:57:01;16.50;;;10.00;;
25950;SDS011;13748;52.240;6.002;2023-01-28T08:59:29;17.73;;;10.73;;
25950;SDS011;13748;52.240;6.002;2023-01-28T09:01:55;15.43;;;9.37;;
25950;SDS011;13748;52.240;6.002;2023-01-28T09:04:22;18.20;;;10.50;;
25950;SDS011;13748;52.240;6.002;2023-01-28T09:06:49;15.23;;;9.20;;
25950;SDS011;13748;52.240;6.002;2023-01-28T09:09:16;19.40;;;11.03;;
25950;SDS011;13748;52.240;6.002;2023-01-28T09:11:42;19.60;;;11.03;;
25950;SDS011;13748;52.240;6.002;2023-01-28T09:14:09;16.97;;;9.77;;
25950;SDS011;13748;52.240;6.002;2023-01-28T09:16:36;16.37;;;10.30;;
25950;SDS011;13748;52.240;6.002;2023-01-28T09:19:02;17.10;;;10.60;;
25950;SDS011;13748;52.240;6.002;2023-01-28T09:21:29;17.03;;;10.93;;
25950;SDS011;13748;52.240;6.002;2023-01-28T09:23:56;17.73;;;10.63;;
25950;SDS011;13748;52.240;6.002;2023-01-28T09:26:23;16.53;;;10.67;;
25950;SDS011;13748;52.240;6.002;2023-01-28T09:28:50;15.90;;;9.83;;
25950;SDS011;13748;52.240;6.002;2023-01-28T09:31:17;16.73;;;10.20;;
25950;SDS011;13748;52.240;6.002;2023-01-28T09:33:43;17.63;;;10.77;;
25950;SDS011;13748;52.240;6.002;2023-01-28T09:36:12;18.53;;;11.10;;
25950;SDS011;13748;52.240;6.002;2023-01-28T09:38:38;14.80;;;9.90;;
25950;SDS011;13748;52.240;6.002;2023-01-28T09:41:15;14.43;;;9.57;;
25950;SDS011;13748;52.240;6.002;2023-01-28T09:43:54;16.50;;;9.83;;
25950;SDS011;13748;52.240;6.002;2023-01-28T09:46:34;16.77;;;10.53;;
25950;SDS011;13748;52.240;6.002;2023-01-28T09:49:04;15.70;;;9.17;;
25950;SDS011;13748;52.240;6.002;2023-01-28T09:51:45;16.57;;;10.23;;
25950;SDS011;13748;52.240;6.002;2023-01-28T09:54:34;16.97;;;10.60;;
25950;SDS011;13748;52.240;6.002;2023-01-28T09:57:12;15.73;;;10.03;;
25950;SDS011;13748;52.240;6.002;2023-01-28T09:59:46;14.80;;;10.07;;
25950;SDS011;13748;52.240;6.002;2023-01-28T10:05:02;15.87;;;10.27;;
25950;SDS011;13748;52.240;6.002;2023-01-28T10:08:00;17.07;;;10.07;;
25950;SDS011;13748;52.240;6.002;2023-01-28T10:10:34;17.70;;;9.50;;
25950;SDS011;13748;52.240;6.002;2023-01-28T10:13:27;14.13;;;8.87;;
25950;SDS011;13748;52.240;6.002;2023-01-28T10:16:30;16.10;;;9.77;;
25950;SDS011;13748;52.240;6.002;2023-01-28T10:19:21;15.50;;;9.80;;
25950;SDS011;13748;52.240;6.002;2023-01-28T10:22:00;13.13;;;8.63;;
25950;SDS011;13748;52.240;6.002;2023-01-28T10:24:32;13.93;;;9.60;;
25950;SDS011;13748;52.240;6.002;2023-01-28T10:27:02;14.07;;;9.63;;
25950;SDS011;13748;52.240;6.002;2023-01-28T10:29:36;14.00;;;9.43;;
25950;SDS011;13748;52.240;6.002;2023-01-28T10:32:10;16.07;;;10.17;;
25950;SDS011;13748;52.240;6.002;2023-01-28T10:34:48;16.47;;;10.10;;
25950;SDS011;13748;52.240;6.002;2023-01-28T10:37:17;15.30;;;9.83;;
25950;SDS011;13748;52.240;6.002;2023-01-28T10:39:44;16.50;;;9.63;;
25950;SDS011;13748;52.240;6.002;2023-01-28T10:42:16;13.40;;;9.30;;
25950;SDS011;13748;52.240;6.002;2023-01-28T10:44:52;14.20;;;9.63;;
25950;SDS011;13748;52.240;6.002;2023-01-28T10:47:28;15.90;;;9.87;;
25950;SDS011;13748;52.240;6.002;2023-01-28T10:50:00;16.93;;;9.87;;
25950;SDS011;13748;52.240;6.002;2023-01-28T10:52:29;16.27;;;9.50;;
25950;SDS011;13748;52.240;6.002;2023-01-28T10:55:00;14.90;;;9.67;;
25950;SDS011;13748;52.240;6.002;2023-01-28T10:57:28;16.73;;;9.57;;
25950;SDS011;13748;52.240;6.002;2023-01-28T10:59:54;15.40;;;9.47;;
25950;SDS011;13748;52.240;6.002;2023-01-28T11:02:25;14.70;;;9.73;;
25950;SDS011;13748;52.240;6.002;2023-01-28T11:07:32;15.97;;;9.97;;
25950;SDS011;13748;52.240;6.002;2023-01-28T11:10:00;12.90;;;8.70;;
25950;SDS011;13748;52.240;6.002;2023-01-28T11:12:28;14.00;;;9.57;;
25950;SDS011;13748;52.240;6.002;2023-01-28T11:14:56;16.87;;;10.33;;
25950;SDS011;13748;52.240;6.002;2023-01-28T11:17:29;14.63;;;9.03;;
25950;SDS011;13748;52.240;6.002;2023-01-28T11:20:20;14.97;;;8.93;;
25950;SDS011;13748;52.240;6.002;2023-01-28T11:22:47;16.53;;;9.40;;
25950;SDS011;13748;52.240;6.002;2023-01-28T11:25:26;15.17;;;9.27;;
25950;SDS011;13748;52.240;6.002;2023-01-28T11:27:59;15.03;;;9.63;;
25950;SDS011;13748;52.240;6.002;2023-01-28T11:30:29;14.60;;;9.53;;
25950;SDS011;13748;52.240;6.002;2023-01-28T11:35:53;14.60;;;8.60;;
25950;SDS011;13748;52.240;6.002;2023-01-28T11:38:28;14.33;;;9.07;;
25950;SDS011;13748;52.240;6.002;2023-01-28T11:40:56;13.33;;;8.43;;
25950;SDS011;13748;52.240;6.002;2023-01-28T11:43:24;15.87;;;9.73;;
25950;SDS011;13748;52.240;6.002;2023-01-28T11:48:35;13.53;;;8.83;;
25950;SDS011;13748;52.240;6.002;2023-01-28T11:51:32;14.87;;;8.90;;
25950;SDS011;13748;52.240;6.002;2023-01-28T11:54:58;16.23;;;9.47;;
25950;SDS011;13748;52.240;6.002;2023-01-28T11:57:14;16.07;;;9.37;;
25950;SDS011;13748;52.240;6.002;2023-01-28T12:07:57;12.80;;;8.20;;
25950;SDS011;13748;52.240;6.002;2023-01-28T12:10:51;14.73;;;8.57;;
25950;SDS011;13748;52.240;6.002;2023-01-28T12:13:36;14.67;;;9.17;;
25950;SDS011;13748;52.240;6.002;2023-01-28T12:27:01;11.90;;;7.67;;
25950;SDS011;13748;52.240;6.002;2023-01-28T12:29:34;11.93;;;7.60;;
25950;SDS011;13748;52.240;6.002;2023-01-28T12:37:39;10.10;;;6.70;;
25950;SDS011;13748;52.240;6.002;2023-01-28T12:40:21;12.30;;;7.73;;
25950;SDS011;13748;52.240;6.002;2023-01-28T12:46:01;13.67;;;7.47;;
25950;SDS011;13748;52.240;6.002;2023-01-28T12:48:36;14.03;;;8.37;;
25950;SDS011;13748;52.240;6.002;2023-01-28T12:51:09;13.67;;;8.07;;
25950;SDS011;13748;52.240;6.002;2023-01-28T12:53:46;13.30;;;7.43;;
25950;SDS011;13748;52.240;6.002;2023-01-28T12:56:18;11.87;;;7.47;;
25950;SDS011;13748;52.240;6.002;2023-01-28T12:59:14;10.87;;;6.63;;
25950;SDS011;13748;52.240;6.002;2023-01-28T13:01:49;10.27;;;7.17;;
25950;SDS011;13748;52.240;6.002;2023-01-28T13:04:31;11.67;;;6.93;;
25950;SDS011;13748;52.240;6.002;2023-01-28T13:07:10;14.37;;;7.57;;
25950;SDS011;13748;52.240;6.002;2023-01-28T13:09:48;11.90;;;7.07;;
25950;SDS011;13748;52.240;6.002;2023-01-28T13:12:19;12.60;;;6.70;;
25950;SDS011;13748;52.240;6.002;2023-01-28T13:14:47;11.97;;;7.47;;
25950;SDS011;13748;52.240;6.002;2023-01-28T13:17:26;12.93;;;7.03;;
25950;SDS011;13748;52.240;6.002;2023-01-28T13:19:54;15.73;;;7.90;;
25950;SDS011;13748;52.240;6.002;2023-01-28T13:24:55;13.63;;;6.77;;
25950;SDS011;13748;52.240;6.002;2023-01-28T13:27:23;12.63;;;7.10;;
25950;SDS011;13748;52.240;6.002;2023-01-28T13:30:00;9.97;;;6.70;;
25950;SDS011;13748;52.240;6.002;2023-01-28T13:32:53;10.63;;;6.43;;
25950;SDS011;13748;52.240;6.002;2023-01-28T13:35:49;12.53;;;7.13;;
25950;SDS011;13748;52.240;6.002;2023-01-28T13:38:18;12.33;;;7.43;;
25950;SDS011;13748;52.240;6.002;2023-01-28T13:40:56;11.97;;;7.50;;
25950;SDS011;13748;52.240;6.002;2023-01-28T13:46:10;12.40;;;7.67;;
25950;SDS011;13748;52.240;6.002;2023-01-28T13:48:44;11.10;;;6.77;;
25950;SDS011;13748;52.240;6.002;2023-01-28T13:51:18;11.90;;;7.10;;
25950;SDS011;13748;52.240;6.002;2023-01-28T13:56:21;13.77;;;7.83;;
25950;SDS011;13748;52.240;6.002;2023-01-28T14:01:41;14.90;;;7.63;;
25950;SDS011;13748;52.240;6.002;2023-01-28T14:04:27;13.07;;;8.10;;
25950;SDS011;13748;52.240;6.002;2023-01-28T14:15:17;13.83;;;7.97;;
25950;SDS011;13748;52.240;6.002;2023-01-28T14:18:25;12.40;;;7.17;;
25950;SDS011;13748;52.240;6.002;2023-01-28T14:20:54;18.00;;;8.37;;
25950;SDS011;13748;52.240;6.002;2023-01-28T14:23:25;15.03;;;8.97;;
25950;SDS011;13748;52.240;6.002;2023-01-28T14:31:25;15.27;;;8.90;;
25950;SDS011;13748;52.240;6.002;2023-01-28T14:33:54;14.70;;;8.73;;
25950;SDS011;13748;52.240;6.002;2023-01-28T14:36:29;13.33;;;7.73;;
25950;SDS011;13748;52.240;6.002;2023-01-28T14:38:56;13.50;;;7.93;;
25950;SDS011;13748;52.240;6.002;2023-01-28T14:41:24;14.13;;;8.60;;
25950;SDS011;13748;52.240;6.002;2023-01-28T14:43:55;13.33;;;7.77;;
25950;SDS011;13748;52.240;6.002;2023-01-28T15:00:16;13.00;;;8.17;;
25950;SDS011;13748;52.240;6.002;2023-01-28T15:02:44;17.30;;;8.87;;
25950;SDS011;13748;52.240;6.002;2023-01-28T15:05:17;16.00;;;8.10;;
25950;SDS011;13748;52.240;6.002;2023-01-28T15:07:46;14.30;;;8.67;;
25950;SDS011;13748;52.240;6.002;2023-01-28T15:10:15;14.33;;;8.63;;
25950;SDS011;13748;52.240;6.002;2023-01-28T15:12:59;14.37;;;8.77;;
25950;SDS011;13748;52.240;6.002;2023-01-28T15:15:36;16.27;;;8.70;;
25950;SDS011;13748;52.240;6.002;2023-01-28T15:18:13;13.73;;;8.17;;
25950;SDS011;13748;52.240;6.002;2023-01-28T15:20:47;15.43;;;8.23;;
25950;SDS011;13748;52.240;6.002;2023-01-28T15:23:19;16.87;;;11.10;;
25950;SDS011;13748;52.240;6.002;2023-01-28T15:25:53;19.57;;;10.97;;
25950;SDS011;13748;52.240;6.002;2023-01-28T15:28:27;14.70;;;9.40;;
25950;SDS011;13748;52.240;6.002;2023-01-28T15:30:56;13.77;;;8.83;;
25950;SDS011;13748;52.240;6.002;2023-01-28T15:33:24;15.83;;;9.13;;
25950;SDS011;13748;52.240;6.002;2023-01-28T15:35:52;15.17;;;9.33;;
25950;SDS011;13748;52.240;6.002;2023-01-28T15:38:21;15.77;;;9.67;;
25950;SDS011;13748;52.240;6.002;2023-01-28T15:40:56;15.03;;;8.73;;
25950;SDS011;13748;52.240;6.002;2023-01-28T15:43:25;15.50;;;8.73;;
25950;SDS011;13748;52.240;6.002;2023-01-28T15:45:55;13.67;;;8.60;;
25950;SDS011;13748;52.240;6.002;2023-01-28T15:48:24;14.77;;;8.73;;
25950;SDS011;13748;52.240;6.002;2023-01-28T15:51:00;16.33;;;9.87;;
25950;SDS011;13748;52.240;6.002;2023-01-28T15:53:48;18.03;;;10.97;;
25950;SDS011;13748;52.240;6.002;2023-01-28T15:56:22;17.23;;;10.33;;
25950;SDS011;13748;52.240;6.002;2023-01-28T15:58:50;18.63;;;10.10;;
25950;SDS011;13748;52.240;6.002;2023-01-28T16:01:18;15.03;;;9.70;;
25950;SDS011;13748;52.240;6.002;2023-01-28T16:03:46;18.97;;;9.63;;
25950;SDS011;13748;52.240;6.002;2023-01-28T16:06:44;20.73;;;10.13;;
25950;SDS011;13748;52.240;6.002;2023-01-28T16:09:19;17.83;;;9.70;;
25950;SDS011;13748;52.240;6.002;2023-01-28T16:11:59;20.80;;;10.33;;
25950;SDS011;13748;52.240;6.002;2023-01-28T16:14:39;18.30;;;9.73;;
25950;SDS011;13748;52.240;6.002;2023-01-28T16:17:10;16.10;;;9.43;;
25950;SDS011;13748;52.240;6.002;2023-01-28T16:19:43;14.83;;;9.10;;
25950;SDS011;13748;52.240;6.002;2023-01-28T16:22:21;18.93;;;9.13;;
25950;SDS011;13748;52.240;6.002;2023-01-28T16:27:46;19.80;;;9.00;;
25950;SDS011;13748;52.240;6.002;2023-01-28T16:30:14;18.90;;;10.37;;
25950;SDS011;13748;52.240;6.002;2023-01-28T16:32:42;17.40;;;10.70;;
25950;SDS011;13748;52.240;6.002;2023-01-28T16:35:17;17.87;;;9.87;;